Latest Weather Observations for Orbost

IDV60801

Issued at 11:02 am EDT Saturday 7 March 2015 (issued every 30 minutes, with the page automatically refreshed every 10 minutes)

About weather observations | Map of weather stations | Latest weather observations for VIC | Other Formats
Station Details ID: 084145 Name: ORBOST Lat: -37.69 Lon: 148.47 Height: 62.65 m
Data from the previous 72 hours. | See also: Recent months at Orbost
Date/Time
EDT
Temp
°C
App
Temp
°C
Dew
Point
Rel
Hum
%
Delta-T
°C
Wind Press
QNH
hPa
Press
MSL
hPa
Rain
since 9 am
mm
Dir
 
Spd
km/h
Gust
km/h
Spd
kts
Gust
kts
07/11:00am 21.7 21.3 12.5 56 5.2 SW 6 15 3 8 1010.8 1010.6 0.0
07/10:30am 20.8 20.3 12.2 58 4.8 NW 6 9 3 5 1010.9 1010.7 0.0
07/10:00am 20.2 19.9 12.7 62 4.2 NNW 6 11 3 6 1010.9 1010.7 0.0
07/09:30am 19.2 18.7 12.2 64 3.9 NNW 6 9 3 5 1011.1 1010.9 0.0
07/09:00am 18.1 18.1 12.5 70 3.1 NNW 4 6 2 3 1011.1 1010.9 0.0
07/08:30am 17.1 17.0 12.2 73 2.7 NNW 4 7 2 4 1011.3 1011.1 0.0
07/08:00am 16.5 16.1 12.5 77 2.2 N 6 6 3 3 1011.3 1011.1 0.0
07/07:30am 15.7 15.1 12.3 80 1.9 N 7 11 4 6 1010.9 1010.7 0.0
07/07:00am 15.5 14.8 12.1 80 1.9 N 7 9 4 5 1010.8 1010.6 0.0
07/06:30am 15.5 15.0 11.9 79 2.0 NNW 6 7 3 4 1010.4 1010.2 0.0
07/06:00am 15.6 15.1 12.0 79 2.0 NNW 6 9 3 5 1010.4 1010.2 0.0
07/05:30am 15.3 14.7 11.7 79 1.9 NW 6 7 3 4 1010.3 1010.1 0.0
07/05:00am 15.7 14.9 11.7 77 2.2 NW 7 11 4 6 1010.2 1010.0 0.0
07/04:30am 15.6 15.0 11.6 77 2.2 WNW 6 9 3 5 1010.6 1010.4 0.0
07/04:00am 15.5 14.8 11.5 77 2.2 WNW 6 9 3 5 1010.7 1010.5 0.0
07/03:30am 15.4 14.5 11.4 77 2.2 NW 7 11 4 6 1010.7 1010.5 0.0
07/03:00am 15.4 14.5 11.4 77 2.2 NW 7 13 4 7 1010.9 1010.7 0.0
07/02:30am 15.4 14.2 11.6 78 2.1 NW 9 15 5 8 1011.1 1010.9 0.0
07/02:00am 15.3 14.4 11.5 78 2.0 WNW 7 13 4 7 1011.3 1011.1 0.0
07/01:30am 15.5 14.0 11.9 79 2.0 WNW 11 19 6 10 1011.6 1011.4 0.0
07/01:00am 15.3 13.8 11.9 80 1.8 NW 11 19 6 10 1011.7 1011.5 0.0
07/12:30am 15.3 13.8 11.9 80 1.8 WNW 11 20 6 11 1011.3 1011.1 0.0
07/12:00am 15.3 14.5 11.8 79 1.9 NW 7 13 4 7 1011.5 1011.3 0.0
 
Date/Time
EDT
Temp
°C
App
Temp
°C
Dew
Point
Rel
Hum
%
Delta-T
°C
Wind Press
QNH
hPa
Press
MSL
hPa
Rain
since 9 am
mm
Dir
 
Spd
km/h
Gust
km/h
Spd
kts
Gust
kts
06/11:30pm 14.8 14.0 11.6 81 1.7 WNW 7 13 4 7 1011.2 1011.0 0.0
06/11:00pm 15.3 14.6 11.9 80 1.8 W 7 9 4 5 1011.3 1011.1 0.0
06/10:30pm 15.9 15.1 13.0 83 1.6 WNW 9 15 5 8 1011.3 1011.1 0.0
06/10:00pm 16.0 16.3 13.3 84 1.5 WNW 4 7 2 4 1011.2 1011.0 0.0
06/09:30pm 16.2 16.1 13.3 83 1.6 SW 6 11 3 6 1011.0 1010.8 0.0
06/09:00pm 16.3 16.0 13.4 83 1.6 SW 7 13 4 7 1010.6 1010.4 0.0
06/08:30pm 15.9 15.1 13.0 83 1.6 WSW 9 19 5 10 1010.2 1010.0 0.0
06/08:00pm 16.1 14.9 12.8 81 1.8 WSW 11 20 6 11 1009.7 1009.5 0.0
06/07:30pm 16.4 14.8 12.9 80 2.0 SW 13 22 7 12 1009.4 1009.2 0.0
06/07:00pm 17.4 14.8 13.1 76 2.4 SW 19 28 10 15 1009.1 1008.9 0.0
06/06:30pm 18.0 15.2 13.1 73 2.8 SW 20 33 11 18 1009.0 1008.8 0.0
06/06:00pm 19.2 16.2 13.8 71 3.1 SW 22 32 12 17 1008.3 1008.1 0.0
06/05:30pm 18.4 14.5 13.3 72 2.9 SW 26 37 14 20 1007.8 1007.6 0.0
06/05:00pm 19.5 16.6 14.1 71 3.1 SW 22 33 12 18 1007.4 1007.2 0.0
06/04:30pm 19.8 16.6 14.2 70 3.2 SW 24 41 13 22 1007.1 1007.0 0.0
06/04:00pm 18.9 15.1 13.5 71 3.1 SW 26 35 14 19 1006.8 1006.7 0.0
06/03:30pm 22.2 17.4 13.0 56 5.3 WSW 30 52 16 28 1006.3 1006.2 0.0
06/03:00pm 21.9 17.3 12.2 54 5.5 WSW 28 48 15 26 1006.2 1006.1 0.0
06/02:59pm 22.0 17.5 12.5 54 5.4 WSW 28 48 15 26 1006.2 1006.1 0.0
06/02:30pm 21.4 17.2 12.3 56 5.1 WSW 26 44 14 24 1006.3 1006.2 0.0
06/02:00pm 21.2 15.0 11.5 54 5.4 W 35 61 19 33 1006.0 1005.9 0.0
06/01:47pm 21.1 16.3 11.7 55 5.2 WSW 28 50 15 27 1006.0 1005.9 0.0
06/01:30pm 20.6 15.6 12.1 58 4.8 W 30 46 16 25 1006.2 1006.1 0.0
06/01:20pm 20.4 16.0 11.6 57 4.9 W 26 46 14 25 1006.2 1006.1 0.0
06/01:00pm 19.8 16.4 11.3 58 4.7 WNW 20 35 11 19 1006.2 1006.1 0.0
06/12:30pm 19.1 15.1 10.6 58 4.6 W 22 33 12 18 1006.2 1006.1 0.0
06/12:00pm 19.2 15.2 10.5 57 4.7 W 22 37 12 20 1006.1 1006.0 0.0
06/11:30am 19.1 15.4 10.1 56 4.8 W 20 43 11 23 1006.1 1006.0 0.0
06/11:00am 19.3 14.4 9.8 54 5.1 W 26 39 14 21 1005.8 1005.7 0.0
06/10:30am 19.1 14.7 9.0 52 5.3 WNW 22 54 12 29 1005.7 1005.6 0.0
06/10:00am 18.1 13.9 8.4 53 5.0 WNW 20 35 11 19 1005.9 1005.8 0.0
06/09:30am 17.9 12.5 7.9 52 5.1 WNW 26 48 14 26 1005.9 1005.8 0.0
06/09:00am 17.2 13.0 7.3 52 5.0 WNW 19 35 10 19 1005.9 1005.8 0.6
06/08:30am 16.7 12.7 6.5 51 5.0 WNW 17 24 9 13 1005.8 1005.7 0.6
06/08:00am 14.2 11.0 5.3 55 4.2 NW 11 17 6 9 1005.6 1005.5 0.6
06/07:30am 12.9 9.9 4.3 56 3.9 NNW 9 13 5 7 1006.0 1005.9 0.6
06/07:00am 12.4 9.0 3.9 56 3.8 NNW 11 20 6 11 1005.4 1005.3 0.6
06/06:30am 13.5 10.1 3.8 52 4.4 NW 11 17 6 9 1005.5 1005.4 0.6
06/06:00am 13.7 9.9 3.8 51 4.5 NW 13 20 7 11 1005.5 1005.4 0.6
06/05:30am 13.5 10.1 3.8 52 4.4 WNW 11 19 6 10 1006.2 1006.1 0.6
06/05:00am 13.0 10.0 3.9 54 4.1 NW 9 17 5 9 1006.1 1006.0 0.6
06/04:30am 12.5 9.9 4.2 57 3.8 NW 7 13 4 7 1006.4 1006.3 0.6
06/04:00am 12.9 9.5 4.1 55 4.0 NW 11 19 6 10 1007.0 1006.9 0.6
06/03:30am 12.7 9.7 4.2 56 3.9 NW 9 15 5 8 1007.6 1007.4 0.6
06/03:00am 13.1 9.4 4.3 55 4.0 WNW 13 20 7 11 1007.9 1007.7 0.6
06/02:30am 12.1 9.2 4.6 60 3.4 NW 9 15 5 8 1008.2 1008.0 0.6
06/02:00am 11.9 9.1 5.3 64 3.1 NNW 9 11 5 6 1008.8 1008.6 0.6
06/01:30am 11.7 9.7 6.2 69 2.6 NW 6 7 3 4 1009.3 1009.1 0.6
06/01:00am 11.6 9.4 5.3 65 2.9 WNW 6 9 3 5 1009.9 1009.7 0.6
06/12:30am 12.8 9.6 5.2 60 3.5 WNW 11 19 6 10 1010.0 1009.8 0.6
06/12:00am 12.5 9.3 5.2 61 3.4 WNW 11 17 6 9 1010.5 1010.3 0.6
 
Date/Time
EDT
Temp
°C
App
Temp
°C
Dew
Point
Rel
Hum
%
Delta-T
°C
Wind Press
QNH
hPa
Press
MSL
hPa
Rain
since 9 am
mm
Dir
 
Spd
km/h
Gust
km/h
Spd
kts
Gust
kts
05/11:30pm 12.8 9.2 5.0 59 3.6 WNW 13 19 7 10 1011.0 1010.8 0.6
05/11:00pm 12.6 9.3 4.8 59 3.6 WNW 11 17 6 9 1011.4 1011.2 0.6
05/10:30pm 13.0 10.1 4.9 58 3.7 WNW 9 15 5 8 1011.7 1011.5 0.6
05/10:00pm 13.2 10.3 4.6 56 4.0 NW 9 15 5 8 1012.0 1011.8 0.6
05/09:30pm 13.5 11.0 4.6 55 4.1 W 7 13 4 7 1012.3 1012.1 0.6
05/09:00pm 13.8 10.5 4.7 54 4.2 W 11 19 6 10 1012.3 1012.1 0.6
05/08:30pm 14.0 11.1 4.9 54 4.2 W 9 17 5 9 1012.2 1012.0 0.6
05/08:00pm 14.7 10.6 4.4 50 4.8 WSW 15 28 8 15 1012.1 1011.9 0.6
05/07:30pm 15.6 11.1 4.0 46 5.4 W 17 26 9 14 1012.2 1012.0 0.6
05/07:00pm 16.5 11.6 4.2 44 5.8 WSW 19 33 10 18 1012.4 1012.2 0.6
05/06:30pm 17.0 13.4 8.4 57 4.4 SW 17 28 9 15 1012.4 1012.2 0.6
05/06:00pm 16.6 12.0 8.3 58 4.2 SW 22 32 12 17 1012.4 1012.2 0.6
05/05:30pm 16.9 12.4 8.6 58 4.3 SW 22 33 12 18 1012.5 1012.3 0.6
05/05:00pm 17.2 13.0 8.1 55 4.6 SW 20 32 11 17 1012.4 1012.2 0.6
05/04:30pm 18.2 14.1 8.5 53 5.0 SW 20 33 11 18 1012.6 1012.4 0.6
05/04:00pm 18.3 13.6 7.7 50 5.4 WSW 22 32 12 17 1012.9 1012.7 0.6
05/03:30pm 16.3 9.5 7.0 54 4.6 SW 32 52 17 28 1013.4 1013.2 0.6
05/03:25pm 16.8 10.5 7.2 53 4.8 SW 30 52 16 28 1013.4 1013.2 0.6
05/03:00pm 18.1 13.8 7.8 51 5.3 WSW 20 33 11 18 1013.4 1013.2 0.6
05/02:30pm 16.6 10.8 6.4 51 5.0 WSW 26 39 14 21 1013.4 1013.2 0.6
05/02:00pm 16.5 11.6 6.9 53 4.8 WSW 22 35 12 19 1013.7 1013.5 0.6
05/01:30pm 16.6 9.9 5.6 48 5.3 WSW 30 48 16 26 1014.1 1013.9 0.6
05/01:19pm 15.2 9.3 6.0 54 4.4 WSW 26 48 14 26 1014.2 1014.0 0.6
05/01:00pm 14.7 9.1 10.1 74 2.4 W 30 50 16 27 1014.7 1014.5 0.6
05/12:39pm 14.8 9.0 9.4 70 2.8 WSW 30 50 16 27 1014.4 1014.2 0.6
05/12:30pm 13.4 8.8 9.5 77 2.0 WSW 24 35 13 19 1014.6 1014.4 0.6
05/12:11pm 11.7 4.9 6.8 72 2.3 WSW 32 54 17 29 1015.1 1014.9 0.2
05/12:00pm 15.5 8.3 5.1 50 4.9 WSW 32 44 17 24 1014.2 1014.0 0.0
05/11:30am 16.1 8.3 4.8 47 5.3 W 35 57 19 31 1013.5 1013.3 0.0
05/11:05am 15.6 8.4 5.2 50 4.9 W 32 52 17 28 1013.4 1013.2 0.0
05/11:00am 15.1 7.7 4.8 50 4.8 W 33 52 18 28 1013.1 1012.9 0.0
05/10:31am 15.3 8.1 5.0 50 4.9 W 32 50 17 27 1012.8 1012.6 0.0
05/10:30am 15.8 9.0 5.1 49 5.1 W 30 46 16 25 1012.9 1012.7 0.0
05/10:00am 14.3 7.8 4.9 53 4.4 W 28 52 15 28 1012.8 1012.6 0.0
05/09:56am 14.5 7.6 4.8 52 4.5 W 30 52 16 28 1012.7 1012.5 0.0
05/09:30am 14.4 7.2 5.2 54 4.3 W 32 44 17 24 1012.4 1012.2 0.0
05/09:03am 13.9 7.5 5.3 56 4.0 W 28 48 15 26 1011.9 1011.7 0.0
05/09:00am 14.0 8.1 5.9 58 3.9 W 26 43 14 23 1011.9 1011.7 1.0
05/08:30am 13.5 7.1 6.8 64 3.2 W 30 52 16 28 1012.0 1011.8 1.0
05/08:00am 13.1 6.2 7.1 67 2.9 W 33 52 18 28 1011.4 1011.2 1.0
05/07:30am 12.8 5.9 7.3 69 2.7 W 33 54 18 29 1010.4 1010.2 1.0
05/07:00am 12.9 5.4 7.8 71 2.5 WSW 37 70 20 38 1009.1 1008.9 1.0
05/06:30am 12.0 5.6 9.2 83 1.4 W 33 57 18 31 1008.5 1008.3 1.0
05/06:00am 12.6 5.0 10.5 87 1.1 W 41 61 22 33 1007.6 1007.4 0.4
05/05:48am 14.3 8.6 11.1 81 1.7 WSW 32 78 17 42 1007.0 1006.9 0.0
05/05:43am 14.8 11.4 11.4 80 1.8 WSW 20 52 11 28 1006.5 1006.4 0.0
05/05:30am 13.9 12.6 11.2 84 1.4 W 9 19 5 10 1005.7 1005.6 0.0
05/05:00am 13.6 13.0 11.7 88 1.0 NW 6 9 3 5 1004.6 1004.5 0.0
05/04:30am 12.6 11.2 10.8 89 0.9 NNW 9 11 5 6 1004.5 1004.4 0.0
05/04:00am 13.4 12.6 11.6 89 1.0 N 7 9 4 5 1004.7 1004.6 0.0
05/03:30am 12.6 11.7 10.5 87 1.1 N 6 9 3 5 1005.0 1004.9 0.0
05/03:00am 12.7 11.7 10.9 89 0.9 N 7 9 4 5 1005.2 1005.1 0.0
05/02:30am 10.8 9.9 9.2 90 0.8 NW 4 6 2 3 1005.6 1005.5 0.0
05/02:00am 12.1 12.2 10.3 89 0.9 CALM 0 2 0 1 1005.7 1005.6 0.0
05/01:30am 12.7 11.5 10.4 86 1.2 NNE 7 9 4 5 1006.2 1006.1 0.0
05/01:00am 12.9 11.8 10.8 87 1.1 N 7 9 4 5 1006.7 1006.6 0.0
05/12:30am 12.4 11.8 10.5 88 1.0 N 4 6 2 3 1007.1 1007.0 0.0
05/12:00am 12.1 12.1 9.8 86 1.2 CALM 0 4 0 2 1007.5 1007.3 0.0
 
Date/Time
EDT
Temp
°C
App
Temp
°C
Dew
Point
Rel
Hum
%
Delta-T
°C
Wind Press
QNH
hPa
Press
MSL
hPa
Rain
since 9 am
mm
Dir
 
Spd
km/h
Gust
km/h
Spd
kts
Gust
kts
04/11:30pm 13.1 13.4 10.8 86 1.2 CALM 0 0 0 0 1007.9 1007.7 0.0
04/11:00pm 13.9 13.1 10.9 82 1.6 ENE 6 7 3 4 1008.1 1007.9 0.0
04/10:30pm 14.2 13.2 11.0 81 1.7 NE 7 9 4 5 1008.7 1008.5 0.0
04/10:00pm 14.6 13.5 10.8 78 2.0 NE 7 9 4 5 1009.3 1009.1 0.0
04/09:30pm 14.3 13.5 11.1 81 1.7 NE 6 9 3 5 1009.7 1009.5 0.0
04/09:00pm 14.9 14.6 11.3 79 1.9 ENE 4 6 2 3 1009.9 1009.7 0.0
04/08:30pm 15.6 15.3 11.4 76 2.3 E 4 4 2 2 1009.9 1009.7 0.0
04/08:00pm 16.6 16.1 10.9 69 3.1 ESE 4 7 2 4 1009.9 1009.7 0.0
04/07:30pm 17.5 16.8 11.3 67 3.4 SE 6 9 3 5 1009.8 1009.6 0.0
04/07:00pm 18.9 18.0 11.5 62 4.1 SSE 7 15 4 8 1009.6 1009.4 0.0
04/06:30pm 20.0 19.1 11.2 57 4.8 SSE 7 11 4 6 1009.4 1009.2 0.0
04/06:00pm 20.4 19.7 11.3 56 5.0 SSE 6 11 3 6 1009.3 1009.1 0.0
04/05:30pm 20.4 19.4 11.1 55 5.1 SSE 7 11 4 6 1009.3 1009.1 0.0
04/05:00pm 20.4 19.5 11.3 56 5.0 SSE 7 15 4 8 1009.5 1009.3 0.0
04/04:30pm 20.6 19.9 12.1 58 4.8 SE 7 13 4 7 1009.7 1009.5 0.0
04/04:00pm 20.7 19.8 12.7 60 4.5 SE 9 19 5 10 1009.9 1009.7 0.0
04/03:30pm 20.6 19.9 13.1 62 4.3 SE 9 19 5 10 1010.3 1010.1 0.0
04/03:00pm 20.6 20.3 13.3 63 4.2 SE 7 15 4 8 1010.7 1010.5 0.0
04/02:30pm 20.1 18.7 12.3 61 4.4 S 11 19 6 10 1011.4 1011.2 0.0
04/02:00pm 20.0 18.5 13.0 64 4.0 S 13 24 7 13 1012.0 1011.8 0.0
04/01:30pm 20.6 19.3 13.8 65 3.9 S 13 22 7 12 1012.2 1012.0 0.0
04/01:00pm 20.5 19.6 14.8 70 3.4 S 13 20 7 11 1012.4 1012.2 0.0
04/12:30pm 20.9 19.9 14.5 67 3.7 S 13 19 7 10 1012.6 1012.4 0.0
04/12:00pm 21.6 21.6 13.5 60 4.7 SSW 6 13 3 7 1013.1 1012.9 0.0
04/11:30am 20.8 20.4 13.0 61 4.4 W 7 13 4 7 1013.5 1013.3 0.0

Other Formats:

Comma delimited format used in spreadsheet applications
http://www.bom.gov.au/fwo/IDV60801/IDV60801.95918.axf

JavaScript Object Notation format (JSON) in row-major order
http://www.bom.gov.au/fwo/IDV60801/IDV60801.95918.json